createdAt,value
2018-09-30T00:00:03.902Z,101932.77
2018-09-30T00:02:33.970Z,101945.50
2018-09-30T00:05:04.576Z,101944.41
2018-09-30T00:07:34.624Z,101943.22
2018-09-30T00:10:05.027Z,101940.48
2018-09-30T00:12:34.581Z,101939.59
2018-09-30T00:15:05.129Z,101938.37
2018-09-30T00:17:35.740Z,101934.59
2018-09-30T00:20:06.063Z,101936.35
2018-09-30T00:22:36.050Z,101924.65
2018-09-30T00:25:10.992Z,101929.61
2018-09-30T00:27:41.042Z,101923.97
2018-09-30T00:30:11.580Z,101916.77
2018-09-30T00:32:42.016Z,101914.20
2018-09-30T00:35:11.954Z,101917.29
2018-09-30T00:37:42.168Z,101907.52
2018-09-30T00:40:12.305Z,101907.55
2018-09-30T00:42:42.567Z,101912.47
2018-09-30T00:45:12.455Z,101899.28
2018-09-30T00:47:42.847Z,101896.18
2018-09-30T00:50:13.719Z,101892.56
2018-09-30T00:52:44.200Z,101889.41
2018-09-30T00:55:14.162Z,101887.65
2018-09-30T00:57:44.363Z,101883.64
2018-09-30T01:00:15.593Z,101880.55
2018-09-30T01:02:45.737Z,101879.60
2018-09-30T01:05:16.560Z,101873.48
2018-09-30T01:07:47.893Z,101878.82
2018-09-30T01:10:17.777Z,101871.27
2018-09-30T01:12:48.045Z,101874.45
2018-09-30T01:15:18.953Z,101861.66
2018-09-30T01:17:48.974Z,101857.16
2018-09-30T01:20:18.850Z,101848.47
2018-09-30T01:22:48.995Z,101850.09
2018-09-30T01:25:18.956Z,101848.76
2018-09-30T01:27:49.114Z,101847.03
2018-09-30T01:30:19.101Z,101844.43
2018-09-30T01:32:49.237Z,101842.18
2018-09-30T01:35:19.279Z,101839.87
2018-09-30T01:37:49.322Z,101841.69
2018-09-30T01:40:19.712Z,101838.14
2018-09-30T01:42:49.621Z,101842.25
2018-09-30T01:45:19.739Z,101838.73
2018-09-30T01:47:49.729Z,101837.30
2018-09-30T01:50:19.742Z,101832.90
2018-09-30T01:52:56.973Z,101827.17
2018-09-30T01:55:27.864Z,101822.22
2018-09-30T01:57:57.627Z,101822.19
2018-09-30T02:00:27.605Z,101820.46
2018-09-30T02:02:57.678Z,101822.22
2018-09-30T02:05:27.605Z,101822.70
2018-09-30T02:07:57.456Z,101817.50
2018-09-30T02:10:27.392Z,101814.86
2018-09-30T02:12:57.426Z,101809.84
2018-09-30T02:15:27.416Z,101802.78
2018-09-30T02:17:57.547Z,101799.27
2018-09-30T02:20:27.820Z,101788.56
2018-09-30T02:22:57.646Z,101783.71
2018-09-30T02:25:27.552Z,101788.56
2018-09-30T02:27:57.404Z,101783.28
2018-09-30T02:30:27.447Z,101781.95
2018-09-30T02:32:57.436Z,101779.31
2018-09-30T02:35:27.463Z,101776.19
2018-09-30T02:37:57.687Z,101770.49
2018-09-30T02:40:27.621Z,101770.89
2018-09-30T02:42:57.897Z,101765.64
2018-09-30T02:45:28.014Z,101767.52
2018-09-30T02:47:57.997Z,101758.22
2018-09-30T02:50:27.955Z,101762.19
2018-09-30T02:52:58.122Z,101754.25
2018-09-30T02:55:28.232Z,101755.16
2018-09-30T02:57:58.451Z,101750.22
2018-09-30T03:00:29.641Z,101749.37
2018-09-30T03:02:59.712Z,101746.70
2018-09-30T03:05:30.836Z,101740.06
2018-09-30T03:08:05.792Z,101737.94
2018-09-30T03:10:36.930Z,101733.09
2018-09-30T03:13:08.112Z,101733.17
2018-09-30T03:15:39.519Z,101730.52
2018-09-30T03:18:09.678Z,101728.66
2018-09-30T03:20:39.685Z,101729.55
2018-09-30T03:23:09.668Z,101719.81
2018-09-30T03:25:39.756Z,101723.36
2018-09-30T03:28:10.459Z,101712.33
2018-09-30T03:30:41.620Z,101713.59
2018-09-30T03:33:11.309Z,101706.54
2018-09-30T03:35:41.474Z,101703.96
2018-09-30T03:38:11.353Z,101694.99
2018-09-30T03:40:41.445Z,101689.75
2018-09-30T03:43:11.292Z,101689.66
2018-09-30T03:45:41.267Z,101685.27
2018-09-30T03:48:11.279Z,101688.81
2018-09-30T03:50:41.469Z,101686.60
2018-09-30T03:53:12.386Z,101678.99
2018-09-30T03:55:42.480Z,101677.66
2018-09-30T03:58:12.632Z,101669.72
2018-09-30T04:00:42.618Z,101671.55
2018-09-30T04:03:12.641Z,101662.17
2018-09-30T04:05:43.127Z,101663.55
2018-09-30T04:08:13.116Z,101659.94
2018-09-30T04:10:43.171Z,101655.06
2018-09-30T04:13:13.341Z,101648.00
2018-09-30T04:15:43.462Z,101647.55
2018-09-30T04:18:13.913Z,101646.18
2018-09-30T04:20:45.348Z,101638.67
2018-09-30T04:23:15.275Z,101634.28
2018-09-30T04:25:46.308Z,101634.22
2018-09-30T04:28:19.128Z,101625.38
2018-09-30T04:30:49.715Z,101632.98
2018-09-30T04:33:19.892Z,101639.16
2018-09-30T04:35:50.294Z,101634.70
2018-09-30T04:38:20.111Z,101632.95
2018-09-30T04:40:50.615Z,101631.13
2018-09-30T04:43:20.779Z,101623.62
2018-09-30T04:45:50.698Z,101630.83
2018-09-30T04:48:20.632Z,101643.70
2018-09-30T04:50:50.082Z,101639.77
2018-09-30T04:53:20.563Z,101641.49
2018-09-30T04:55:50.567Z,101642.38
2018-09-30T04:58:20.936Z,101642.00
2018-09-30T05:00:52.456Z,101640.64
2018-09-30T05:03:22.622Z,101642.86
2018-09-30T05:05:52.819Z,101646.03
2018-09-30T05:08:23.830Z,101647.52
2018-09-30T05:10:54.000Z,101644.81
2018-09-30T05:13:24.269Z,101643.45
2018-09-30T05:15:53.742Z,101643.00
2018-09-30T05:18:24.359Z,101640.76
2018-09-30T05:20:54.227Z,101637.27
2018-09-30T05:23:24.040Z,101636.87
2018-09-30T05:25:53.646Z,101627.60
2018-09-30T05:28:23.370Z,101635.09
2018-09-30T05:30:53.241Z,101634.13
2018-09-30T05:33:23.150Z,101626.76
2018-09-30T05:35:52.821Z,101628.48
2018-09-30T05:38:23.114Z,101624.55
2018-09-30T05:40:52.766Z,101622.19
2018-09-30T05:43:22.983Z,101619.05
2018-09-30T05:45:53.940Z,101620.86
2018-09-30T05:48:24.286Z,101615.56
2018-09-30T05:50:55.146Z,101617.69
2018-09-30T05:53:25.107Z,101620.86
2018-09-30T05:55:54.851Z,101627.09
2018-09-30T05:58:24.832Z,101619.86
2018-09-30T06:00:54.782Z,101626.92
2018-09-30T06:03:24.835Z,101621.20
2018-09-30T06:05:55.000Z,101617.02
2018-09-30T06:08:25.498Z,101619.23
2018-09-30T06:10:55.980Z,101619.55
2018-09-30T06:13:25.926Z,101626.51
2018-09-30T06:15:56.812Z,101625.53
2018-09-30T06:18:26.669Z,101621.00
2018-09-30T06:20:56.691Z,101617.35
2018-09-30T06:23:26.571Z,101626.36
2018-09-30T06:25:56.646Z,101614.23
2018-09-30T06:28:26.094Z,101616.34
2018-09-30T06:30:56.058Z,101609.20
2018-09-30T06:33:26.238Z,101616.55
2018-09-30T06:35:56.143Z,101615.51
2018-09-30T06:38:26.277Z,101608.33
2018-09-30T06:40:56.517Z,101610.50
2018-09-30T06:43:27.147Z,101609.08
2018-09-30T06:45:58.174Z,101610.70
2018-09-30T06:48:28.954Z,101616.83
2018-09-30T06:50:58.959Z,101617.20
2018-09-30T06:53:29.021Z,101610.43
2018-09-30T06:55:59.673Z,101610.88
2018-09-30T06:58:29.506Z,101602.31
2018-09-30T07:00:59.468Z,101604.84
2018-09-30T07:03:30.093Z,101600.88
2018-09-30T07:06:00.703Z,101600.28
2018-09-30T07:08:31.412Z,101594.52
2018-09-30T07:11:02.107Z,101601.27
2018-09-30T07:13:32.082Z,101593.81
2018-09-30T07:16:03.133Z,101588.56
2018-09-30T07:18:32.405Z,101584.62
2018-09-30T07:21:02.430Z,101585.52
2018-09-30T07:23:33.280Z,101585.75
2018-09-30T07:26:03.448Z,101577.38
2018-09-30T07:28:33.462Z,101580.75
2018-09-30T07:31:03.062Z,101578.63
2018-09-30T07:33:33.019Z,101578.63
2018-09-30T07:36:02.951Z,101575.84
2018-09-30T07:38:32.748Z,101570.34
2018-09-30T07:41:03.394Z,101575.66
2018-09-30T07:43:34.348Z,101567.30
2018-09-30T07:46:04.409Z,101569.03
2018-09-30T07:48:34.261Z,101572.33
2018-09-30T07:51:04.317Z,101569.73
2018-09-30T07:53:34.182Z,101575.70
2018-09-30T07:56:04.053Z,101563.12
2018-09-30T07:58:33.878Z,101564.69
2018-09-30T08:01:03.878Z,101557.99
2018-09-30T08:03:33.810Z,101553.69
2018-09-30T08:06:03.689Z,101545.81
2018-09-30T08:08:33.517Z,101555.09
2018-09-30T08:11:03.475Z,101551.00
2018-09-30T08:13:33.396Z,101537.92
2018-09-30T08:16:03.363Z,101537.55
2018-09-30T08:18:33.207Z,101534.02
2018-09-30T08:21:03.249Z,101532.78
2018-09-30T08:23:39.311Z,101523.14
2018-09-30T08:26:08.954Z,101515.30
2018-09-30T08:28:39.005Z,101515.41
2018-09-30T08:31:09.556Z,101512.81
2018-09-30T08:33:39.897Z,101506.77
2018-09-30T08:36:10.688Z,101510.56
2018-09-30T08:38:41.952Z,101512.13
2018-09-30T08:41:13.832Z,101499.08
2018-09-30T08:43:44.280Z,101502.96
2018-09-30T08:46:15.053Z,101502.28
2018-09-30T08:48:45.838Z,101500.56
2018-09-30T08:51:16.384Z,101504.91
2018-09-30T08:53:46.891Z,101497.98
2018-09-30T08:56:17.019Z,101501.92
2018-09-30T08:58:47.012Z,101500.43
2018-09-30T09:01:17.197Z,101498.08
2018-09-30T09:03:47.706Z,101489.50
2018-09-30T09:06:17.815Z,101497.56
2018-09-30T09:08:47.588Z,101487.92
2018-09-30T09:11:17.370Z,101485.80
2018-09-30T09:13:48.171Z,101488.34
2018-09-30T09:16:18.107Z,101496.71
2018-09-30T09:18:48.983Z,101487.37
2018-09-30T09:21:19.272Z,101488.74
2018-09-30T09:23:49.081Z,101479.67
2018-09-30T09:26:19.232Z,101482.02
2018-09-30T09:28:51.273Z,101485.39
2018-09-30T09:31:20.837Z,101471.20
2018-09-30T09:33:50.553Z,101466.73
2018-09-30T09:36:20.209Z,101457.37
2018-09-30T09:38:50.182Z,101450.91
2018-09-30T09:41:20.029Z,101457.14
2018-09-30T09:43:50.038Z,101441.94
2018-09-30T09:46:19.847Z,101442.56
2018-09-30T09:48:49.627Z,101434.99
2018-09-30T09:51:20.475Z,101439.97
2018-09-30T09:53:51.215Z,101419.70
2018-09-30T09:56:21.291Z,101423.63
2018-09-30T09:58:51.480Z,101422.52
2018-09-30T10:01:21.663Z,101413.67
2018-09-30T10:03:51.603Z,101412.09
2018-09-30T10:06:21.822Z,101408.78
2018-09-30T10:08:52.200Z,101402.05
2018-09-30T10:11:22.518Z,101393.46
2018-09-30T10:13:52.634Z,101385.19
2018-09-30T10:16:22.791Z,101372.09
2018-09-30T10:18:53.374Z,101372.37
2018-09-30T10:21:23.595Z,101365.76
2018-09-30T10:23:53.657Z,101359.47
2018-09-30T10:26:23.719Z,101351.91
2018-09-30T10:28:53.666Z,101353.99
2018-09-30T10:31:23.746Z,101350.70
2018-09-30T10:33:53.705Z,101345.13
2018-09-30T10:36:23.723Z,101336.05
2018-09-30T10:38:54.311Z,101341.63
2018-09-30T10:41:24.340Z,101333.36
2018-09-30T10:43:54.986Z,101326.33
2018-09-30T10:46:25.861Z,101331.48
2018-09-30T10:48:55.912Z,101325.89
2018-09-30T10:51:26.085Z,101324.23
2018-09-30T10:53:56.043Z,101336.05
2018-09-30T10:56:26.644Z,101323.79
2018-09-30T10:58:57.142Z,101330.20
2018-09-30T11:01:27.159Z,101319.88
2018-09-30T11:03:57.553Z,101315.97
2018-09-30T11:06:27.362Z,101313.11
2018-09-30T11:08:57.677Z,101303.69
2018-09-30T11:11:28.916Z,101314.54
2018-09-30T11:13:59.441Z,101303.25
2018-09-30T11:16:29.431Z,101301.61
2018-09-30T11:19:00.721Z,101299.66
2018-09-30T11:21:31.013Z,101292.48
2018-09-30T11:24:01.440Z,101290.48
2018-09-30T11:26:31.633Z,101287.13
2018-09-30T11:29:02.086Z,101278.97
2018-09-30T11:31:32.744Z,101280.70
2018-09-30T11:34:02.592Z,101271.91
2018-09-30T11:36:33.217Z,101266.30
2018-09-30T11:39:03.271Z,101260.25
2018-09-30T11:41:33.694Z,101254.48
2018-09-30T11:44:05.980Z,101246.98
2018-09-30T11:46:37.090Z,101242.28
2018-09-30T11:49:08.248Z,101236.91
2018-09-30T11:51:38.482Z,101233.75
2018-09-30T11:54:08.669Z,101233.52
2018-09-30T11:56:39.596Z,101224.61
2018-09-30T11:59:09.578Z,101215.28
2018-09-30T12:01:40.177Z,101218.38
2018-09-30T12:04:10.318Z,101219.18
2018-09-30T12:06:40.993Z,101219.95
2018-09-30T12:09:13.104Z,101222.47
2018-09-30T12:11:43.636Z,101212.81
2018-09-30T12:14:13.670Z,101213.98
2018-09-30T12:16:44.296Z,101200.34
2018-09-30T12:19:14.964Z,101199.34
2018-09-30T12:21:45.594Z,101197.38
2018-09-30T12:24:15.772Z,101194.72
2018-09-30T12:26:47.646Z,101190.67
2018-09-30T12:29:17.786Z,101182.41
2018-09-30T12:31:47.909Z,101179.98
2018-09-30T12:34:18.030Z,101183.57
2018-09-30T12:36:47.995Z,101179.53
2018-09-30T12:39:18.662Z,101172.55
2018-09-30T12:41:48.754Z,101172.17
2018-09-30T12:44:18.888Z,101168.67
2018-09-30T12:46:48.969Z,101160.36
2018-09-30T12:49:19.097Z,101154.53
2018-09-30T12:51:49.360Z,101155.83
2018-09-30T12:54:19.295Z,101144.50
2018-09-30T12:56:49.283Z,101142.34
2018-09-30T12:59:20.616Z,101130.50
2018-09-30T13:01:50.548Z,101135.30
2018-09-30T13:04:20.812Z,101132.95
2018-09-30T13:06:50.812Z,101133.70
2018-09-30T13:09:20.957Z,101126.86
2018-09-30T13:11:51.318Z,101114.64
2018-09-30T13:14:21.373Z,101118.05
2018-09-30T13:16:52.386Z,101120.56
2018-09-30T13:19:22.422Z,101113.86
2018-09-30T13:21:52.454Z,101111.16
2018-09-30T13:24:23.043Z,101104.80
2018-09-30T13:26:53.247Z,101103.47
2018-09-30T13:29:23.520Z,101105.42
2018-09-30T13:31:54.096Z,101098.89
2018-09-30T13:34:24.182Z,101098.81
2018-09-30T13:36:54.216Z,101096.67
2018-09-30T13:39:24.716Z,101092.42
2018-09-30T13:41:55.561Z,101080.04
2018-09-30T13:44:25.697Z,101092.92
2018-09-30T13:46:56.310Z,101084.53
2018-09-30T13:49:26.551Z,101083.92
2018-09-30T13:51:56.571Z,101078.50
2018-09-30T13:54:26.663Z,101079.86
2018-09-30T13:56:57.048Z,101067.77
2018-09-30T13:59:27.183Z,101073.84
2018-09-30T14:01:57.287Z,101071.05
2018-09-30T14:04:27.482Z,101069.48
2018-09-30T14:06:57.961Z,101061.84
2018-09-30T14:09:28.175Z,101063.98
2018-09-30T14:11:58.451Z,101060.28
2018-09-30T14:14:29.110Z,101053.99
2018-09-30T14:16:59.386Z,101050.41
2018-09-30T14:19:29.122Z,101046.55
2018-09-30T14:21:59.523Z,101044.52
2018-09-30T14:24:29.629Z,101038.42
2018-09-30T14:26:59.821Z,101039.98
2018-09-30T14:29:30.501Z,101035.34
2018-09-30T14:32:00.648Z,101034.75
2018-09-30T14:34:31.544Z,101026.73
2018-09-30T14:37:01.611Z,101022.97
2018-09-30T14:39:31.575Z,101014.95
2018-09-30T14:42:01.622Z,101009.80
2018-09-30T14:44:31.805Z,101011.39
2018-09-30T14:47:02.408Z,101000.74
2018-09-30T14:49:32.417Z,101007.63
2018-09-30T14:52:02.254Z,100997.55
2018-09-30T14:54:32.451Z,100998.65
2018-09-30T14:57:02.446Z,100998.23
2018-09-30T14:59:33.215Z,100991.09
2018-09-30T15:02:03.163Z,100992.26
2018-09-30T15:04:33.130Z,100984.73
2018-09-30T15:07:03.144Z,100979.87
2018-09-30T15:09:33.260Z,100982.70
2018-09-30T15:12:03.495Z,100983.77
2018-09-30T15:14:34.543Z,100990.23
2018-09-30T15:17:05.623Z,100982.83
2018-09-30T15:19:35.639Z,100979.81
2018-09-30T15:22:06.326Z,100977.30
2018-09-30T15:24:36.496Z,100976.92
2018-09-30T15:27:06.875Z,100977.60
2018-09-30T15:29:36.931Z,100970.05
2018-09-30T15:32:07.269Z,100968.50
2018-09-30T15:34:36.522Z,100966.58
2018-09-30T15:37:06.681Z,100962.70
2018-09-30T15:39:37.397Z,100959.44
2018-09-30T15:42:08.455Z,100951.42
2018-09-30T15:44:38.949Z,100950.15
2018-09-30T15:47:09.000Z,100948.98
2018-09-30T15:49:38.711Z,100955.00
2018-09-30T15:52:08.808Z,100949.77
2018-09-30T15:54:38.635Z,100952.26
2018-09-30T15:57:08.538Z,100947.81
2018-09-30T15:59:38.006Z,100947.25
2018-09-30T16:02:08.580Z,100946.47
2018-09-30T16:04:39.596Z,100950.14
2018-09-30T16:07:10.657Z,100944.16
2018-09-30T16:09:40.796Z,100948.89
2018-09-30T16:12:10.982Z,100951.30
2018-09-30T16:14:41.919Z,100950.06
2018-09-30T16:17:12.052Z,100945.31
2018-09-30T16:19:43.360Z,100954.30
2018-09-30T16:22:14.581Z,100948.20
2018-09-30T16:24:45.859Z,100945.77
2018-09-30T16:27:15.747Z,100946.75
2018-09-30T16:29:46.564Z,100948.39
2018-09-30T16:32:17.907Z,100936.98
2018-09-30T16:34:47.680Z,100941.78
2018-09-30T16:37:20.605Z,100940.45
2018-09-30T16:39:51.768Z,100945.73
2018-09-30T16:42:23.704Z,100948.52
2018-09-30T16:44:53.845Z,100950.02
2018-09-30T16:47:24.010Z,100952.83
2018-09-30T16:49:54.654Z,100952.96
2018-09-30T16:52:25.384Z,100947.11
2018-09-30T16:54:54.203Z,100951.66
2018-09-30T17:04:25.356Z,100952.34
2018-09-30T17:06:57.288Z,100950.77
2018-09-30T17:09:28.782Z,100955.06
2018-09-30T17:11:59.008Z,100958.44
2018-09-30T17:14:29.210Z,100949.99
2018-09-30T17:16:59.493Z,100950.00
2018-09-30T17:19:28.987Z,100956.45
2018-09-30T17:21:58.986Z,100952.25
2018-09-30T17:24:28.853Z,100961.34
2018-09-30T17:27:01.402Z,100963.16
2018-09-30T17:29:30.366Z,100959.91
2018-09-30T17:32:01.718Z,100959.30
2018-09-30T17:34:34.516Z,100955.97
2018-09-30T17:37:05.341Z,100961.72
2018-09-30T17:39:39.669Z,100955.28
2018-09-30T17:42:10.990Z,100955.99
2018-09-30T17:44:43.218Z,100952.50
2018-09-30T17:47:14.306Z,100955.77
2018-09-30T17:49:44.735Z,100950.59
2018-09-30T17:52:14.387Z,100950.50
2018-09-30T17:54:45.541Z,100947.80
2018-09-30T17:57:15.795Z,100951.70
2018-09-30T17:59:47.000Z,100946.88
2018-09-30T18:02:17.003Z,100948.66
2018-09-30T18:04:47.464Z,100943.21
2018-09-30T18:07:17.700Z,100942.78
2018-09-30T18:09:47.704Z,100940.53
2018-09-30T18:12:18.202Z,100933.30
2018-09-30T18:21:50.776Z,100933.07
2018-09-30T18:24:20.421Z,100930.12
2018-09-30T18:26:50.510Z,100934.78
2018-09-30T18:29:20.583Z,100939.13
2018-09-30T18:31:50.821Z,100936.19
2018-09-30T18:34:21.047Z,100937.27
2018-09-30T18:36:52.078Z,100932.73
2018-09-30T18:39:23.907Z,100936.17
2018-09-30T18:41:55.088Z,100934.65
2018-09-30T18:44:24.798Z,100935.48
2018-09-30T18:46:55.509Z,100931.53
2018-09-30T18:49:26.657Z,100935.30
2018-09-30T18:51:57.403Z,100926.08
2018-09-30T18:54:27.678Z,100928.50
2018-09-30T18:56:58.652Z,100924.21
2018-09-30T18:59:30.399Z,100929.02
2018-09-30T19:02:00.931Z,100922.08
2018-09-30T19:04:32.060Z,100920.34
2018-09-30T19:07:01.442Z,100923.45
2018-09-30T19:09:31.100Z,100922.98
2018-09-30T19:12:01.027Z,100918.68
2018-09-30T19:14:31.039Z,100913.91
2018-09-30T19:17:01.027Z,100904.87
2018-09-30T19:19:31.114Z,100900.59
2018-09-30T19:22:00.332Z,100901.59
2018-09-30T19:24:30.234Z,100894.53
2018-09-30T19:27:00.350Z,100893.87
2018-09-30T19:29:29.705Z,100893.99
2018-09-30T19:31:58.745Z,100892.59
2018-09-30T19:34:27.972Z,100886.41
2018-09-30T19:36:57.720Z,100891.58
2018-09-30T19:39:26.956Z,100886.48
2018-09-30T19:41:57.225Z,100879.34
2018-09-30T19:44:26.606Z,100882.03
2018-09-30T19:46:56.386Z,100880.97
2018-09-30T19:49:25.745Z,100880.02
2018-09-30T19:51:56.021Z,100880.57
2018-09-30T19:54:25.609Z,100876.27
2018-09-30T19:56:55.046Z,100871.27
2018-09-30T19:59:24.016Z,100875.45
2018-09-30T20:01:53.520Z,100868.16
2018-09-30T20:04:23.392Z,100873.75
2018-09-30T20:06:53.415Z,100871.59
2018-09-30T20:09:24.186Z,100865.03
2018-09-30T20:11:53.919Z,100865.08
2018-09-30T20:14:23.594Z,100867.87
2018-09-30T20:16:53.234Z,100865.39
2018-09-30T20:19:24.157Z,100868.27
2018-09-30T20:21:54.049Z,100865.16
2018-09-30T20:24:24.865Z,100862.06
2018-09-30T20:26:54.822Z,100867.11
2018-09-30T20:29:24.633Z,100860.83
2018-09-30T20:31:54.248Z,100849.92
2018-09-30T20:35:53.278Z,100854.88
2018-09-30T20:38:22.616Z,100852.44
2018-09-30T20:40:52.183Z,100849.43
2018-09-30T20:43:22.928Z,100839.41
2018-09-30T20:45:52.220Z,100839.59
2018-09-30T20:48:22.240Z,100831.78
2018-09-30T20:50:52.403Z,100840.37
2018-09-30T20:53:22.398Z,100831.50
2018-09-30T20:55:52.184Z,100829.48
2018-09-30T20:58:22.012Z,100822.38
2018-09-30T21:00:51.982Z,100824.23
2018-09-30T21:03:20.999Z,100824.31
2018-09-30T21:05:59.500Z,100823.95
2018-09-30T21:08:29.653Z,100820.66
2018-09-30T21:10:59.527Z,100818.45
2018-09-30T21:13:29.271Z,100818.09
2018-09-30T21:15:59.496Z,100811.11
2018-09-30T21:18:29.622Z,100816.18
2018-09-30T21:20:59.901Z,100814.98
2018-09-30T21:23:31.340Z,100808.04
2018-09-30T21:26:02.901Z,100810.79
2018-09-30T21:28:33.952Z,100807.42
2018-09-30T21:31:04.070Z,100804.45
2018-09-30T21:33:33.905Z,100804.02
2018-09-30T21:36:04.220Z,100807.13
2018-09-30T21:38:34.954Z,100810.57
2018-09-30T21:41:05.077Z,100803.88
2018-09-30T21:43:35.150Z,100803.69
2018-09-30T21:46:05.078Z,100802.86
2018-09-30T21:48:35.075Z,100803.44
2018-09-30T21:51:05.277Z,100805.77
2018-09-30T21:53:36.063Z,100805.06
2018-09-30T21:56:05.848Z,100795.39
2018-09-30T21:58:36.915Z,100787.89
2018-09-30T22:01:07.915Z,100786.56
2018-09-30T22:03:37.911Z,100786.09
2018-09-30T22:06:08.018Z,100784.45
2018-09-30T22:08:38.127Z,100779.58
2018-09-30T22:11:08.092Z,100782.16
2018-09-30T22:13:38.026Z,100779.63
2018-09-30T22:16:08.395Z,100776.78
2018-09-30T22:18:39.414Z,100766.54
2018-09-30T22:21:09.455Z,100769.72
2018-09-30T22:23:39.493Z,100772.50
2018-09-30T22:26:09.559Z,100764.61
2018-09-30T22:28:40.646Z,100760.70
2018-09-30T22:31:10.562Z,100757.73
2018-09-30T22:33:40.251Z,100765.16
2018-09-30T22:36:10.106Z,100767.73
2018-09-30T22:38:40.112Z,100768.13
2018-09-30T22:41:11.071Z,100765.06
2018-09-30T22:43:41.138Z,100768.60
2018-09-30T22:46:11.127Z,100767.33
2018-09-30T22:48:40.944Z,100762.81
2018-09-30T22:51:10.646Z,100757.06
2018-09-30T22:53:40.960Z,100759.91
2018-09-30T22:56:10.543Z,100759.13
2018-09-30T22:58:40.795Z,100758.20
2018-09-30T23:01:11.002Z,100751.31
2018-09-30T23:03:40.615Z,100748.61
2018-09-30T23:06:10.458Z,100744.06
2018-09-30T23:08:40.527Z,100744.12
2018-09-30T23:11:10.328Z,100747.67
2018-09-30T23:13:40.563Z,100737.84
2018-09-30T23:16:09.712Z,100736.51
2018-09-30T23:18:40.288Z,100735.58
2018-09-30T23:21:10.032Z,100744.43
2018-09-30T23:23:40.574Z,100743.97
2018-09-30T23:26:10.512Z,100750.08
2018-09-30T23:28:40.597Z,100750.88
2018-09-30T23:31:10.447Z,100749.05
2018-09-30T23:33:40.421Z,100744.50
2018-09-30T23:36:10.652Z,100738.19
2018-09-30T23:38:40.985Z,100746.14
2018-09-30T23:41:10.982Z,100745.64
2018-09-30T23:43:41.246Z,100741.52
2018-09-30T23:46:11.111Z,100744.53
2018-09-30T23:48:41.070Z,100738.68
2018-09-30T23:51:11.688Z,100736.30
2018-09-30T23:53:41.577Z,100738.44
2018-09-30T23:56:11.505Z,100737.07
2018-09-30T23:58:41.658Z,100733.73
